Time;durP1;ratioP1;P1;durP2;ratioP2;P2;SDS_P1;SDS_P2;PMS_P1;PMS_P2;Temp;Humidity;BMP_temperature;BMP_pressure;BME280_temperature;BME280_humidity;BME280_pressure;Samples;Min_cycle;Max_cycle;Signal;HPM_P1;HPM_P2
2022/06/23 00:00:32;;;;;;;0.00;0.00;;;23.20;90.20;;;;;;5083666;28;20071;-75
2022/06/23 00:02:59;;;;;;;0.00;0.00;;;23.20;90.20;;;;;;5084543;28;20088;-73
2022/06/23 00:05:29;;;;;;;0.00;0.00;;;23.20;90.10;;;;;;5084734;28;20055;-73
2022/06/23 00:07:58;;;;;;;0.00;0.00;;;23.20;90.00;;;;;;5066551;28;20100;-74
2022/06/23 00:10:37;;;;;;;0.00;0.00;;;23.30;90.10;;;;;;5084954;28;20016;-74
2022/06/23 00:13:12;;;;;;;0.00;0.00;;;23.20;90.20;;;;;;5066665;28;20020;-74
2022/06/23 00:15:41;;;;;;;0.00;0.00;;;23.10;90.40;;;;;;5078337;28;20303;-73
2022/06/23 00:18:23;;;;;;;0.00;0.00;;;23.10;90.50;;;;;;5046378;28;20021;-73
2022/06/23 00:20:59;;;;;;;0.00;0.00;;;23.10;90.60;;;;;;5064637;28;20021;-74
2022/06/23 00:23:38;;;;;;;0.00;0.00;;;23.10;90.80;;;;;;5064611;28;20083;-74
2022/06/23 00:26:22;;;;;;;0.00;0.00;;;23.20;90.90;;;;;;5063720;28;20039;-74
2022/06/23 00:28:56;;;;;;;0.00;0.00;;;23.10;91.00;;;;;;5046714;28;20028;-74
2022/06/23 00:31:36;;;;;;;0.00;0.00;;;23.10;90.90;;;;;;5046208;28;20041;-73
2022/06/23 00:34:20;;;;;;;0.00;0.00;;;23.20;91.00;;;;;;5063699;28;20090;-74
2022/06/23 00:36:50;;;;;;;0.00;0.00;;;23.10;90.90;;;;;;5046492;28;20025;-73
2022/06/23 00:39:32;;;;;;;0.00;0.00;;;23.20;91.00;;;;;;5063536;28;20538;-73
2022/06/23 00:41:59;;;;;;;0.00;0.00;;;23.10;91.10;;;;;;5063975;28;20032;-74
2022/06/23 00:44:36;;;;;;;0.00;0.00;;;23.10;91.30;;;;;;5063902;28;20355;-73
2022/06/23 00:47:07;;;;;;;0.00;0.00;;;23.10;91.40;;;;;;5045703;28;20056;-74
2022/06/23 00:49:49;;;;;;;0.00;0.00;;;23.00;91.50;;;;;;5083783;28;20024;-73
2022/06/23 00:52:28;;;;;;;0.00;0.00;;;23.00;91.70;;;;;;5083648;28;20021;-73
2022/06/23 00:54:59;;;;;;;0.00;0.00;;;22.90;91.80;;;;;;5083857;28;20066;-73
2022/06/23 00:57:33;;;;;;;0.00;0.00;;;22.90;91.90;;;;;;5065929;28;20096;-73
2022/06/23 01:00:14;;;;;;;0.00;0.00;;;22.90;92.10;;;;;;5083140;28;20043;-74
2022/06/23 01:02:47;;;;;;;0.00;0.00;;;22.80;92.30;;;;;;5083271;28;20052;-73
2022/06/23 01:05:17;;;;;;;0.00;0.00;;;22.80;92.50;;;;;;5065457;28;20059;-73
2022/06/23 01:08:11;;;;;;;0.00;0.00;;;22.80;92.50;;;;;;5083749;28;20070;-73
2022/06/23 01:10:40;;;;;;;0.00;0.00;;;22.70;92.60;;;;;;5083561;28;20025;-73
2022/06/23 01:13:28;;;;;;;0.00;0.00;;;22.70;92.70;;;;;;5083114;28;20312;-74
2022/06/23 01:16:00;;;;;;;0.00;0.00;;;22.70;92.80;;;;;;5083483;28;20073;-75
2022/06/23 01:18:44;;;;;;;0.00;0.00;;;22.70;92.90;;;;;;5083768;28;20043;-72
2022/06/23 01:21:25;;;;;;;0.00;0.00;;;22.70;92.90;;;;;;5064064;28;20024;-72
2022/06/23 01:24:21;;;;;;;0.00;0.00;;;22.70;93.00;;;;;;5083362;28;20260;-74
2022/06/23 01:27:10;;;;;;;0.00;0.00;;;22.80;93.10;;;;;;5083162;28;20304;-73
2022/06/23 01:29:48;;;;;;;0.00;0.00;;;22.80;93.00;;;;;;5085146;28;20077;-73
2022/06/23 01:32:23;;;;;;;0.00;0.00;;;22.80;92.90;;;;;;5090405;28;20027;-73
2022/06/23 01:34:59;;;;;;;0.00;0.00;;;22.80;92.80;;;;;;5103716;28;20027;-73
2022/06/23 01:37:37;;;;;;;0.00;0.00;;;22.80;92.60;;;;;;5046423;28;20403;-74
2022/06/23 01:40:22;;;;;;;0.00;0.00;;;22.80;92.50;;;;;;5062860;28;20021;-74
2022/06/23 01:43:02;;;;;;;0.00;0.00;;;22.80;92.40;;;;;;5062850;28;20136;-73
2022/06/23 01:45:47;;;;;;;0.00;0.00;;;22.80;92.40;;;;;;5045217;28;20041;-73
2022/06/23 01:48:52;;;;;;;0.00;0.00;;;22.80;92.40;;;;;;5062501;28;20029;-74
2022/06/23 01:51:22;;;;;;;0.00;0.00;;;22.80;92.40;;;;;;5062722;28;20055;-74
2022/06/23 01:53:53;;;;;;;0.00;0.00;;;22.80;92.40;;;;;;5081296;28;20189;-74
2022/06/23 01:56:31;;;;;;;0.00;0.00;;;22.70;92.40;;;;;;5081589;28;20025;-74
2022/06/23 01:59:29;;;;;;;0.00;0.00;;;22.70;92.40;;;;;;5083254;28;20027;-74
2022/06/23 02:02:13;;;;;;;0.00;0.00;;;22.70;92.40;;;;;;5087056;28;20359;-74
2022/06/23 02:05:00;;;;;;;0.00;0.00;;;22.60;92.60;;;;;;5082497;28;20036;-74
2022/06/23 02:07:41;;;;;;;0.00;0.00;;;22.60;92.70;;;;;;5082499;28;20031;-73
2022/06/23 02:10:32;;;;;;;0.00;0.00;;;22.50;92.80;;;;;;5081879;28;20020;-74
2022/06/23 02:13:23;;;;;;;0.00;0.00;;;22.50;93.00;;;;;;5082482;28;20036;-73
2022/06/23 02:16:16;;;;;;;0.00;0.00;;;22.40;93.20;;;;;;5082415;28;20079;-75
2022/06/23 02:19:09;;;;;;;0.00;0.00;;;22.40;93.40;;;;;;5064732;28;20084;-74
2022/06/23 02:21:46;;;;;;;0.00;0.00;;;22.40;93.60;;;;;;5062606;28;20016;-75
2022/06/23 02:24:45;;;;;;;0.00;0.00;;;22.30;93.60;;;;;;5064648;28;20025;-74
2022/06/23 02:27:24;;;;;;;0.00;0.00;;;22.30;93.70;;;;;;5066847;28;20039;-75
2022/06/23 02:30:03;;;;;;;0.00;0.00;;;22.30;93.80;;;;;;5059202;28;20019;-74
2022/06/23 02:32:48;;;;;;;0.00;0.00;;;22.30;93.60;;;;;;5061727;28;20025;-73
2022/06/23 02:35:22;;;;;;;0.00;0.00;;;22.30;93.50;;;;;;5062023;28;20088;-72
2022/06/23 02:37:47;;;;;;;0.00;0.00;;;22.30;93.50;;;;;;5065181;28;20013;-73
2022/06/23 02:40:26;;;;;;;0.00;0.00;;;22.20;93.40;;;;;;5082100;28;20024;-73
2022/06/23 02:43:03;;;;;;;0.00;0.00;;;22.20;93.80;;;;;;5082263;28;20027;-73
2022/06/23 02:45:47;;;;;;;0.00;0.00;;;22.20;93.60;;;;;;5063920;28;20058;-73
2022/06/23 02:48:31;;;;;;;0.00;0.00;;;22.20;93.50;;;;;;5082045;28;20080;-73
2022/06/23 02:51:27;;;;;;;0.00;0.00;;;22.10;93.50;;;;;;5064459;28;20025;-73
2022/06/23 02:54:15;;;;;;;0.00;0.00;;;22.00;93.50;;;;;;5061169;28;20060;-72
2022/06/23 02:56:54;;;;;;;0.00;0.00;;;22.00;93.60;;;;;;5062263;28;20086;-72
2022/06/23 02:59:27;;;;;;;0.00;0.00;;;22.00;93.70;;;;;;5061670;28;20308;-72
2022/06/23 03:02:03;;;;;;;0.00;0.00;;;22.00;93.80;;;;;;5062109;28;20067;-72
2022/06/23 03:04:46;;;;;;;0.00;0.00;;;22.00;93.80;;;;;;5081905;28;20303;-72
2022/06/23 03:07:25;;;;;;;0.00;0.00;;;22.00;93.80;;;;;;5083966;28;20237;-73
2022/06/23 03:10:06;;;;;;;0.00;0.00;;;22.10;93.70;;;;;;5084461;28;20024;-72
2022/06/23 03:12:41;;;;;;;0.00;0.00;;;22.10;93.60;;;;;;5105843;28;20020;-72
2022/06/23 03:15:36;;;;;;;0.00;0.00;;;22.10;93.70;;;;;;5106269;28;20024;-71
2022/06/23 03:18:09;;;;;;;0.00;0.00;;;22.00;93.70;;;;;;5104090;28;20314;-72
2022/06/23 03:20:54;;;;;;;0.00;0.00;;;22.00;93.70;;;;;;5105010;28;20016;-75
2022/06/23 03:23:25;;;;;;;0.00;0.00;;;21.90;93.80;;;;;;5105895;28;20016;-76
2022/06/23 03:26:15;;;;;;;0.00;0.00;;;21.90;94.00;;;;;;5105044;28;20181;-74
2022/06/23 03:28:44;;;;;;;0.00;0.00;;;21.90;94.10;;;;;;5103766;28;20023;-76
2022/06/23 03:31:22;;;;;;;0.00;0.00;;;21.90;94.30;;;;;;5106127;28;20024;-74
2022/06/23 03:34:02;;;;;;;0.00;0.00;;;21.90;94.40;;;;;;5106140;28;20078;-75
2022/06/23 03:36:38;;;;;;;0.00;0.00;;;21.90;94.40;;;;;;5105605;28;20047;-75
2022/06/23 03:42:29;;;;;;;0.00;0.00;;;22.00;94.60;;;;;;5104851;28;20089;-75
2022/06/23 03:45:09;;;;;;;0.00;0.00;;;22.00;94.70;;;;;;5090788;28;20099;-76
2022/06/23 03:47:44;;;;;;;0.00;0.00;;;22.00;94.70;;;;;;5099383;28;20016;-76
2022/06/23 03:50:25;;;;;;;0.00;0.00;;;22.10;94.50;;;;;;5084104;28;20295;-76
2022/06/23 03:53:13;;;;;;;0.00;0.00;;;22.20;94.40;;;;;;5084451;28;20021;-76
2022/06/23 03:55:46;;;;;;;0.00;0.00;;;22.20;94.30;;;;;;5085265;28;20303;-77
2022/06/23 03:58:18;;;;;;;0.00;0.00;;;22.20;94.30;;;;;;5085434;28;20024;-76
2022/06/23 04:01:07;;;;;;;0.00;0.00;;;22.30;94.10;;;;;;5082634;28;20227;-77
2022/06/23 04:03:57;;;;;;;0.00;0.00;;;22.30;94.10;;;;;;5046810;28;20224;-77
2022/06/23 04:06:32;;;;;;;0.00;0.00;;;22.30;94.00;;;;;;5064696;28;20031;-76
2022/06/23 04:09:00;;;;;;;0.00;0.00;;;22.40;94.00;;;;;;5047078;28;20017;-78
2022/06/23 04:11:52;;;;;;;0.00;0.00;;;22.40;93.90;;;;;;5046257;28;20059;-73
2022/06/23 04:14:23;;;;;;;0.00;0.00;;;22.40;93.90;;;;;;5064103;28;20054;-73
2022/06/23 04:16:58;;;;;;;0.00;0.00;;;22.50;94.00;;;;;;5066969;28;20362;-72
2022/06/23 04:19:29;;;;;;;0.00;0.00;;;22.50;93.70;;;;;;5065873;28;20276;-73
2022/06/23 04:22:10;;;;;;;0.00;0.00;;;22.50;93.60;;;;;;5066772;28;20066;-73
2022/06/23 04:24:41;;;;;;;0.00;0.00;;;22.50;93.70;;;;;;5084186;28;20118;-73
2022/06/23 04:27:21;;;;;;;0.00;0.00;;;22.50;93.80;;;;;;5084346;28;20028;-73
2022/06/23 04:29:51;;;;;;;0.00;0.00;;;22.60;94.20;;;;;;5066811;28;20087;-76
2022/06/23 04:32:25;;;;;;;0.00;0.00;;;22.60;94.30;;;;;;5083088;28;20020;-75
2022/06/23 04:34:59;;;;;;;0.00;0.00;;;22.70;94.40;;;;;;5066957;28;20040;-75
2022/06/23 04:37:32;;;;;;;0.00;0.00;;;22.80;94.30;;;;;;5066241;28;20024;-75
2022/06/23 04:40:24;;;;;;;0.00;0.00;;;22.80;94.20;;;;;;5066776;28;20062;-76
2022/06/23 04:43:16;;;;;;;0.00;0.00;;;22.90;93.90;;;;;;5066604;28;20345;-77
2022/06/23 04:45:54;;;;;;;0.00;0.00;;;23.00;93.80;;;;;;5066607;28;20035;-77
2022/06/23 04:48:27;;;;;;;0.00;0.00;;;23.10;93.40;;;;;;5053238;28;20063;-77
2022/06/23 04:51:19;;;;;;;0.00;0.00;;;23.10;93.10;;;;;;5046839;28;20083;-77
2022/06/23 04:54:09;;;;;;;0.00;0.00;;;23.10;93.20;;;;;;5060208;28;20033;-77
2022/06/23 04:56:50;;;;;;;0.00;0.00;;;23.20;92.90;;;;;;5047943;28;20100;-72
2022/06/23 04:59:24;;;;;;;0.00;0.00;;;23.20;92.90;;;;;;5062956;28;20025;-73
2022/06/23 05:01:53;;;;;;;0.00;0.00;;;23.20;92.80;;;;;;5071239;28;20083;-74
2022/06/23 05:04:33;;;;;;;0.00;0.00;;;23.30;92.80;;;;;;5067876;28;20031;-74
2022/06/23 05:07:01;;;;;;;0.00;0.00;;;23.40;92.70;;;;;;5069318;28;20035;-73
2022/06/23 05:09:37;;;;;;;0.00;0.00;;;23.40;92.70;;;;;;5064992;28;20304;-73
2022/06/23 05:12:25;;;;;;;0.00;0.00;;;23.30;92.70;;;;;;5066672;28;20024;-72
2022/06/23 05:15:14;;;;;;;0.00;0.00;;;23.30;92.90;;;;;;5063535;28;20020;-72
2022/06/23 05:17:49;;;;;;;0.00;0.00;;;23.30;93.20;;;;;;5061670;28;20025;-74
2022/06/23 05:20:44;;;;;;;0.00;0.00;;;23.30;93.40;;;;;;5059700;28;20102;-74
2022/06/23 05:23:19;;;;;;;0.00;0.00;;;23.30;93.30;;;;;;5059067;28;20020;-73
2022/06/23 05:25:52;;;;;;;0.00;0.00;;;23.30;93.40;;;;;;5067567;28;20222;-73
2022/06/23 05:28:22;;;;;;;0.00;0.00;;;23.30;93.50;;;;;;5073010;28;20036;-73
2022/06/23 05:30:52;;;;;;;0.00;0.00;;;23.40;93.60;;;;;;5061361;28;20277;-72
2022/06/23 05:33:22;;;;;;;0.00;0.00;;;23.40;93.60;;;;;;5068919;28;20419;-73
2022/06/23 05:36:04;;;;;;;0.00;0.00;;;23.50;93.60;;;;;;5066640;28;20036;-73
2022/06/23 05:38:43;;;;;;;0.00;0.00;;;23.50;93.60;;;;;;5068729;28;20078;-73
2022/06/23 05:41:22;;;;;;;0.00;0.00;;;23.60;93.60;;;;;;5061104;28;20088;-73
2022/06/23 05:43:50;;;;;;;0.00;0.00;;;23.60;93.60;;;;;;5063111;28;20303;-72
2022/06/23 05:46:22;;;;;;;0.00;0.00;;;23.70;93.70;;;;;;5038463;28;20037;-74
2022/06/23 05:49:00;;;;;;;0.00;0.00;;;23.70;93.60;;;;;;5050252;28;20247;-72
2022/06/23 05:51:51;;;;;;;0.00;0.00;;;23.70;93.90;;;;;;5059422;28;20539;-76
2022/06/23 05:54:35;;;;;;;0.00;0.00;;;23.70;93.70;;;;;;5049463;28;20037;-77
2022/06/23 05:57:13;;;;;;;0.00;0.00;;;23.80;93.80;;;;;;5045851;28;20016;-76
2022/06/23 05:59:45;;;;;;;0.00;0.00;;;23.90;93.70;;;;;;5061825;28;20027;-76
2022/06/23 06:02:28;;;;;;;0.00;0.00;;;23.90;93.70;;;;;;5062815;28;20040;-76
2022/06/23 06:04:56;;;;;;;0.00;0.00;;;24.00;93.70;;;;;;5062803;28;20023;-76
2022/06/23 06:07:51;;;;;;;0.00;0.00;;;24.10;93.60;;;;;;5073175;28;20230;-77
2022/06/23 06:10:22;;;;;;;0.00;0.00;;;24.10;93.60;;;;;;5058175;28;20059;-76
2022/06/23 06:12:50;;;;;;;0.00;0.00;;;24.30;93.50;;;;;;5044931;28;20017;-76
2022/06/23 06:15:27;;;;;;;0.00;0.00;;;24.60;93.20;;;;;;5044780;28;20216;-77
2022/06/23 06:18:04;;;;;;;0.00;0.00;;;24.80;92.90;;;;;;5062727;28;20032;-77
2022/06/23 06:20:30;;;;;;;0.00;0.00;;;25.20;92.30;;;;;;5090981;28;20204;-77
2022/06/23 06:23:13;;;;;;;0.00;0.00;;;25.50;91.40;;;;;;5091239;28;20032;-77
2022/06/23 06:25:43;;;;;;;0.00;0.00;;;25.90;90.70;;;;;;5082498;28;20100;-77
2022/06/23 06:28:21;;;;;;;0.00;0.00;;;26.40;90.20;;;;;;5082397;28;20012;-77
2022/06/23 06:30:59;;;;;;;0.00;0.00;;;27.00;88.10;;;;;;5064163;28;20130;-78
2022/06/23 06:33:45;;;;;;;0.00;0.00;;;27.60;86.20;;;;;;5067586;28;20025;-78
2022/06/23 06:36:27;;;;;;;0.00;0.00;;;27.80;83.80;;;;;;5062830;28;20216;-77
2022/06/23 06:39:00;;;;;;;0.00;0.00;;;27.80;81.60;;;;;;5044696;28;20212;-74
2022/06/23 06:41:25;;;;;;;0.00;0.00;;;27.90;82.10;;;;;;5063389;28;20031;-78
2022/06/23 06:43:52;;;;;;;0.00;0.00;;;28.40;83.70;;;;;;5066466;28;20021;-79
2022/06/23 06:46:17;;;;;;;0.00;0.00;;;28.90;83.00;;;;;;5081364;28;20083;-78
2022/06/23 06:48:43;;;;;;;0.00;0.00;;;29.50;80.40;;;;;;5073799;28;20319;-79
2022/06/23 06:51:21;;;;;;;0.00;0.00;;;30.10;78.90;;;;;;5049914;28;20048;-79
2022/06/23 06:53:55;;;;;;;0.00;0.00;;;30.60;77.10;;;;;;5049230;28;20338;-80
2022/06/23 06:56:42;;;;;;;0.00;0.00;;;31.10;75.40;;;;;;5067917;28;20047;-80
2022/06/23 06:59:45;;;;;;;0.00;0.00;;;31.70;73.70;;;;;;5067833;28;20009;-77
2022/06/23 07:02:14;;;;;;;0.00;0.00;;;32.10;68.30;;;;;;5031694;28;20044;-77
2022/06/23 07:05:06;;;;;;;0.00;0.00;;;32.40;70.30;;;;;;5091002;28;20099;-78
2022/06/23 07:07:39;;;;;;;0.00;0.00;;;32.70;67.50;;;;;;5055540;28;20037;-79
2022/06/23 07:10:16;;;;;;;0.00;0.00;;;32.90;65.90;;;;;;5086434;28;20013;-80
2022/06/23 07:12:49;;;;;;;0.00;0.00;;;33.40;65.90;;;;;;5084752;28;20055;-79
2022/06/23 07:15:34;;;;;;;0.00;0.00;;;33.90;64.70;;;;;;5100619;28;20099;-78
2022/06/23 07:18:24;;;;;;;0.00;0.00;;;34.30;62.80;;;;;;5106492;28;20099;-78
2022/06/23 07:21:11;;;;;;;0.00;0.00;;;34.60;62.00;;;;;;5104436;28;20109;-77
2022/06/23 07:24:05;;;;;;;0.00;0.00;;;34.70;60.20;;;;;;5105865;28;20039;-77
2022/06/23 07:26:37;;;;;;;0.00;0.00;;;34.50;60.40;;;;;;5069450;28;20051;-76
2022/06/23 07:29:36;;;;;;;0.00;0.00;;;33.80;61.00;;;;;;5105450;28;20080;-77
2022/06/23 07:32:32;;;;;;;0.00;0.00;;;33.00;62.10;;;;;;5090864;28;20074;-75
2022/06/23 07:35:22;;;;;;;0.00;0.00;;;32.20;62.90;;;;;;5093851;28;20039;-76
2022/06/23 07:38:01;;;;;;;0.00;0.00;;;31.40;65.30;;;;;;5104346;28;20036;-74
2022/06/23 07:40:33;;;;;;;0.00;0.00;;;30.70;66.40;;;;;;5087879;28;20020;-75
2022/06/23 07:43:15;;;;;;;0.00;0.00;;;30.10;68.10;;;;;;5098281;28;20032;-76
2022/06/23 07:46:13;;;;;;;0.00;0.00;;;29.70;69.60;;;;;;5086503;28;20039;-74
2022/06/23 07:48:39;;;;;;;0.00;0.00;;;29.40;71.50;;;;;;5047513;28;20103;-76
2022/06/23 07:51:07;;;;;;;0.00;0.00;;;29.30;72.30;;;;;;5094038;28;20434;-75
2022/06/23 07:53:38;;;;;;;0.00;0.00;;;29.20;71.50;;;;;;5094145;28;20024;-75
2022/06/23 07:56:06;;;;;;;0.00;0.00;;;29.10;72.10;;;;;;5091027;28;20356;-75
2022/06/23 07:58:35;;;;;;;0.00;0.00;;;29.30;73.10;;;;;;5082375;28;20081;-75
2022/06/23 08:01:16;;;;;;;0.00;0.00;;;29.50;70.50;;;;;;5082459;28;20367;-75
2022/06/23 08:03:50;;;;;;;0.00;0.00;;;29.90;71.00;;;;;;5049451;28;20039;-78
2022/06/23 08:06:21;;;;;;;0.00;0.00;;;30.90;68.50;;;;;;5069476;28;20032;-75
2022/06/23 08:08:49;;;;;;;0.00;0.00;;;32.00;66.50;;;;;;5047044;28;20037;-75
2022/06/23 08:14:07;;;;;;;0.00;0.00;;;34.30;61.90;;;;;;5060846;28;20035;-74
2022/06/23 08:16:51;;;;;;;0.00;0.00;;;35.60;60.30;;;;;;5067454;28;20319;-74
2022/06/23 08:19:34;;;;;;;0.00;0.00;;;36.60;58.60;;;;;;5062252;28;20051;-75
2022/06/23 08:22:10;;;;;;;0.00;0.00;;;37.70;56.10;;;;;;5068268;28;20024;-74
2022/06/23 08:24:38;;;;;;;0.00;0.00;;;38.50;55.30;;;;;;5065500;28;20087;-74
2022/06/23 08:27:09;;;;;;;0.00;0.00;;;39.20;53.90;;;;;;5061021;28;20285;-74
2022/06/23 08:29:42;;;;;;;0.00;0.00;;;39.80;52.90;;;;;;5061125;28;20021;-74
2022/06/23 08:32:09;;;;;;;0.00;0.00;;;40.30;51.10;;;;;;5065359;28;20024;-75
2022/06/23 08:34:39;;;;;;;0.00;0.00;;;40.90;49.60;;;;;;5060828;28;20300;-75
2022/06/23 08:37:13;;;;;;;0.00;0.00;;;41.20;48.00;;;;;;5066130;28;20089;-75
2022/06/23 08:40:13;;;;;;;0.00;0.00;;;41.50;46.60;;;;;;5077272;28;20318;-76
2022/06/23 08:42:43;;;;;;;0.00;0.00;;;41.80;46.00;;;;;;5071401;28;20033;-84
2022/06/23 08:45:30;;;;;;;0.00;0.00;;;42.00;45.90;;;;;;5073917;28;20036;-74
2022/06/23 08:48:01;;;;;;;0.00;0.00;;;42.20;45.30;;;;;;5070654;28;20024;-73
2022/06/23 08:50:30;;;;;;;0.00;0.00;;;42.30;45.40;;;;;;5052866;28;20095;-74
2022/06/23 08:53:03;;;;;;;0.00;0.00;;;42.80;45.70;;;;;;5060385;28;20013;-75
2022/06/23 08:55:58;;;;;;;0.00;0.00;;;43.10;45.20;;;;;;5065839;28;20012;-75
2022/06/23 08:58:35;;;;;;;0.00;0.00;;;43.60;44.10;;;;;;5046951;28;20087;-75
2022/06/23 09:01:09;;;;;;;0.00;0.00;;;44.00;43.20;;;;;;5060095;28;20116;-75
2022/06/23 09:04:00;;;;;;;0.00;0.00;;;44.20;42.90;;;;;;5076088;28;20090;-75
2022/06/23 09:06:44;;;;;;;0.00;0.00;;;44.30;42.00;;;;;;5052660;28;20096;-74
2022/06/23 09:09:13;;;;;;;0.00;0.00;;;44.30;41.90;;;;;;5076687;28;20020;-76
2022/06/23 09:12:04;;;;;;;0.00;0.00;;;44.60;41.70;;;;;;5073440;28;20049;-77
2022/06/23 09:15:00;;;;;;;0.00;0.00;;;44.70;40.80;;;;;;5066129;28;20036;-77
2022/06/23 09:17:50;;;;;;;0.00;0.00;;;45.00;41.60;;;;;;5078297;28;20012;-76
2022/06/23 09:20:24;;;;;;;0.00;0.00;;;45.20;40.20;;;;;;5079832;28;20024;-74
2022/06/23 09:22:55;;;;;;;0.00;0.00;;;44.40;39.00;;;;;;5041975;28;20021;-74
2022/06/23 09:25:54;;;;;;;0.00;0.00;;;43.10;40.80;;;;;;5054092;28;20028;-74
2022/06/23 09:28:48;;;;;;;0.00;0.00;;;41.60;40.70;;;;;;5066503;28;20023;-74
2022/06/23 09:31:37;;;;;;;0.00;0.00;;;40.20;42.20;;;;;;5076052;28;20027;-75
2022/06/23 09:34:35;;;;;;;0.00;0.00;;;39.80;43.80;;;;;;5073270;28;20074;-74
2022/06/23 09:37:13;;;;;;;0.00;0.00;;;40.60;44.10;;;;;;5053880;28;20041;-74
2022/06/23 09:39:54;;;;;;;0.00;0.00;;;41.60;42.30;;;;;;5062866;28;20315;-75
2022/06/23 09:42:28;;;;;;;0.00;0.00;;;41.70;41.40;;;;;;5062077;28;20024;-75
2022/06/23 09:45:09;;;;;;;0.00;0.00;;;40.90;41.60;;;;;;5044344;28;20039;-75
2022/06/23 09:47:48;;;;;;;0.00;0.00;;;40.80;43.10;;;;;;5064148;28;20086;-75
2022/06/23 09:50:16;;;;;;;0.00;0.00;;;41.40;42.70;;;;;;5065833;28;20313;-76
2022/06/23 09:53:02;;;;;;;0.00;0.00;;;41.40;42.40;;;;;;5067408;28;20047;-81
2022/06/23 09:55:49;;;;;;;0.00;0.00;;;41.90;41.90;;;;;;5064418;28;20091;-74
2022/06/23 09:58:37;;;;;;;0.00;0.00;;;42.90;41.40;;;;;;5069328;28;20027;-75
2022/06/23 10:01:48;;;;;;;0.00;0.00;;;43.60;40.80;;;;;;5065846;28;20155;-75
2022/06/23 10:04:50;;;;;;;0.00;0.00;;;44.60;39.60;;;;;;5062278;28;20277;-73
2022/06/23 10:07:34;;;;;;;0.00;0.00;;;45.30;38.60;;;;;;5066838;28;20074;-73
2022/06/23 10:10:33;;;;;;;0.00;0.00;;;46.10;38.30;;;;;;5064729;28;20033;-72
2022/06/23 10:13:33;;;;;;;0.00;0.00;;;46.60;38.30;;;;;;5060592;28;20108;-73
2022/06/23 10:16:40;;;;;;;0.00;0.00;;;47.00;38.60;;;;;;5065494;28;20619;-76
2022/06/23 10:19:21;;;;;;;0.00;0.00;;;47.50;36.80;;;;;;5064248;28;20025;-74
2022/06/23 10:22:01;;;;;;;0.00;0.00;;;45.90;36.00;;;;;;5061551;28;20088;-72
2022/06/23 10:24:48;;;;;;;0.00;0.00;;;44.10;37.60;;;;;;5071346;28;20046;-73
2022/06/23 10:28:08;;;;;;;0.00;0.00;;;43.30;39.10;;;;;;5043485;28;20055;-73
2022/06/23 10:30:54;;;;;;;0.00;0.00;;;43.90;39.60;;;;;;4968498;28;20155;-72
2022/06/23 10:33:37;;;;;;;0.00;0.00;;;45.00;37.90;;;;;;5038510;28;20200;-73
2022/06/23 10:36:27;;;;;;;0.00;0.00;;;45.90;37.20;;;;;;5064633;28;20164;-73
2022/06/23 10:39:17;;;;;;;0.00;0.00;;;46.70;36.70;;;;;;5041805;28;20017;-72
2022/06/23 10:42:04;;;;;;;0.00;0.00;;;46.30;36.20;;;;;;5065651;28;20110;-83
2022/06/23 10:44:39;;;;;;;0.00;0.00;;;47.00;35.50;;;;;;5065316;28;20218;-72
2022/06/23 10:47:17;;;;;;;0.00;0.00;;;48.20;36.30;;;;;;5068452;28;20402;-72
2022/06/23 10:49:42;;;;;;;0.00;0.00;;;49.00;35.00;;;;;;5072112;28;20259;-80
2022/06/23 10:52:28;;;;;;;0.00;0.00;;;49.50;34.50;;;;;;5073153;28;20209;-70
2022/06/23 10:55:06;;;;;;;0.00;0.00;;;49.90;34.00;;;;;;5070568;28;20122;-70
2022/06/23 10:57:46;;;;;;;0.00;0.00;;;50.10;33.50;;;;;;5065639;28;20028;-73
2022/06/23 11:00:15;;;;;;;0.00;0.00;;;50.40;33.40;;;;;;5064645;28;20100;-83
2022/06/23 11:02:44;;;;;;;0.00;0.00;;;50.50;33.10;;;;;;5069894;28;20076;-74
2022/06/23 11:05:22;;;;;;;0.00;0.00;;;50.40;32.80;;;;;;5062757;28;20107;-74
2022/06/23 11:07:59;;;;;;;0.00;0.00;;;50.50;33.10;;;;;;5066609;28;20204;-76
2022/06/23 11:11:08;;;;;;;0.00;0.00;;;50.60;33.10;;;;;;5055553;28;20021;-72
2022/06/23 11:13:52;;;;;;;0.00;0.00;;;50.20;31.60;;;;;;5058927;28;20116;-78
2022/06/23 11:17:01;;;;;;;0.00;0.00;;;49.80;32.60;;;;;;5054040;28;20301;-73
2022/06/23 11:19:45;;;;;;;0.00;0.00;;;49.60;32.90;;;;;;5055607;28;20138;-72
2022/06/23 11:22:26;;;;;;;0.00;0.00;;;49.40;32.80;;;;;;5076597;28;20027;-79
2022/06/23 11:25:04;;;;;;;0.00;0.00;;;49.00;32.20;;;;;;5062406;28;20017;-72
2022/06/23 11:27:42;;;;;;;0.00;0.00;;;48.50;31.70;;;;;;5068114;28;20041;-70
2022/06/23 11:30:23;;;;;;;0.00;0.00;;;47.80;32.20;;;;;;5062654;28;20044;-70
2022/06/23 11:33:07;;;;;;;0.00;0.00;;;46.90;32.00;;;;;;5069595;28;20021;-71
2022/06/23 11:36:05;;;;;;;0.00;0.00;;;45.80;32.80;;;;;;5049244;28;20338;-71
2022/06/23 11:38:52;;;;;;;0.00;0.00;;;44.60;32.80;;;;;;5065557;28;20020;-70
2022/06/23 11:41:38;;;;;;;0.00;0.00;;;43.10;33.40;;;;;;5066099;28;20028;-71
2022/06/23 11:44:36;;;;;;;0.00;0.00;;;41.80;34.20;;;;;;5064528;28;20316;-71
2022/06/23 11:47:22;;;;;;;0.00;0.00;;;40.50;35.40;;;;;;4997897;28;20046;-72
2022/06/23 11:49:53;;;;;;;;;;;39.10;36.70;;;;;;5066969;28;20013;-73
2022/06/23 11:52:25;;;;;;;0.00;0.00;;;38.10;38.00;;;;;;5068300;28;19900;-69
2022/06/23 11:55:11;;;;;;;0.00;0.00;;;37.40;38.30;;;;;;5067782;28;20016;-71
2022/06/23 11:57:43;;;;;;;0.00;0.00;;;36.80;39.40;;;;;;5052600;28;20028;-70
2022/06/23 12:00:18;;;;;;;0.00;0.00;;;36.20;39.90;;;;;;5067733;28;20089;-71
2022/06/23 12:03:07;;;;;;;0.00;0.00;;;35.70;40.30;;;;;;5072518;28;20052;-82
2022/06/23 12:05:33;;;;;;;0.00;0.00;;;35.20;42.20;;;;;;5064762;28;20037;-72
2022/06/23 12:08:23;;;;;;;0.00;0.00;;;34.80;41.60;;;;;;5064666;28;20677;-72
2022/06/23 12:10:48;;;;;;;0.00;0.00;;;34.40;43.30;;;;;;5061749;28;20025;-72
2022/06/23 12:13:14;;;;;;;0.00;0.00;;;33.80;43.50;;;;;;5063947;28;20099;-70
2022/06/23 12:15:44;;;;;;;0.00;0.00;;;33.60;44.30;;;;;;5064516;28;20080;-74
2022/06/23 12:18:14;;;;;;;0.00;0.00;;;33.40;43.70;;;;;;5063185;28;20039;-80
2022/06/23 12:21:17;;;;;;;0.00;0.00;;;33.20;43.00;;;;;;5062397;28;20083;-80
2022/06/23 12:23:52;;;;;;;0.00;0.00;;;33.00;43.50;;;;;;5061613;28;20032;-74
2022/06/23 12:26:24;;;;;;;0.00;0.00;;;32.60;43.60;;;;;;5043305;28;20312;-70
2022/06/23 12:29:05;;;;;;;0.00;0.00;;;32.40;43.90;;;;;;5061823;28;20035;-70
2022/06/23 12:32:02;;;;;;;0.00;0.00;;;32.40;42.90;;;;;;5062430;28;20033;-71
2022/06/23 12:35:02;;;;;;;0.00;0.00;;;32.40;44.50;;;;;;5062464;28;20043;-72
2022/06/23 12:37:46;;;;;;;0.00;0.00;;;32.40;46.10;;;;;;5061386;28;20024;-70
2022/06/23 12:40:33;;;;;;;0.00;0.00;;;32.30;45.10;;;;;;5040134;28;20099;-81
2022/06/23 12:43:24;;;;;;;0.00;0.00;;;32.20;44.20;;;;;;5054661;28;20415;-71
2022/06/23 12:46:06;;;;;;;0.00;0.00;;;32.10;45.00;;;;;;5043324;28;20028;-71
2022/06/23 12:48:49;;;;;;;0.00;0.00;;;32.10;45.10;;;;;;5065265;28;20591;-72
2022/06/23 12:51:39;;;;;;;0.00;0.00;;;32.10;44.80;;;;;;5060105;28;20025;-80
2022/06/23 12:54:11;;;;;;;0.00;0.00;;;31.90;46.00;;;;;;5063392;28;21073;-70
2022/06/23 12:57:07;;;;;;;0.00;0.00;;;31.90;46.50;;;;;;5050175;28;20063;-72
2022/06/23 12:59:43;;;;;;;0.00;0.00;;;32.00;46.30;;;;;;5063003;28;20083;-71
2022/06/23 13:02:43;;;;;;;0.00;0.00;;;32.00;45.10;;;;;;5044839;28;20090;-76
2022/06/23 13:05:22;;;;;;;0.00;0.00;;;32.00;45.00;;;;;;5081821;28;20307;-72
2022/06/23 13:08:03;;;;;;;0.00;0.00;;;32.00;45.20;;;;;;5080964;28;20044;-72
2022/06/23 13:10:56;;;;;;;0.00;0.00;;;32.00;45.30;;;;;;5079589;28;20111;-74
2022/06/23 13:13:30;;;;;;;0.00;0.00;;;32.00;44.90;;;;;;5080339;28;20125;-74
2022/06/23 13:16:06;;;;;;;0.00;0.00;;;31.90;44.90;;;;;;5083048;28;20020;-74
2022/06/23 13:18:48;;;;;;;0.00;0.00;;;31.80;44.90;;;;;;5077835;28;20081;-72
2022/06/23 13:21:28;;;;;;;0.00;0.00;;;31.70;45.50;;;;;;5078785;28;20047;-76
2022/06/23 13:24:10;;;;;;;0.00;0.00;;;31.60;45.70;;;;;;5078364;28;20013;-71
2022/06/23 13:26:58;;;;;;;0.00;0.00;;;31.50;45.60;;;;;;5083289;28;20211;-71
2022/06/23 13:29:25;;;;;;;0.00;0.00;;;31.40;45.50;;;;;;5082177;28;20043;-72
2022/06/23 13:31:54;;;;;;;0.00;0.00;;;31.30;46.10;;;;;;5080800;28;20030;-72
2022/06/23 13:34:27;;;;;;;0.00;0.00;;;31.30;46.00;;;;;;5084342;28;20020;-72
2022/06/23 13:36:59;;;;;;;0.00;0.00;;;31.30;45.50;;;;;;5062850;28;20027;-75
2022/06/23 13:39:55;;;;;;;0.00;0.00;;;31.20;44.80;;;;;;5079444;28;20024;-72
2022/06/23 13:42:57;;;;;;;0.00;0.00;;;31.10;44.80;;;;;;5080603;28;20111;-74
2022/06/23 13:45:44;;;;;;;0.00;0.00;;;31.00;45.20;;;;;;5077182;28;20036;-80
2022/06/23 13:48:29;;;;;;;0.00;0.00;;;30.80;46.10;;;;;;5078836;28;20032;-74
2022/06/23 13:50:59;;;;;;;0.00;0.00;;;30.80;45.30;;;;;;5075401;28;20109;-74
2022/06/23 13:53:34;;;;;;;0.00;0.00;;;30.70;45.30;;;;;;5080773;28;20032;-74
2022/06/23 13:56:02;;;;;;;0.00;0.00;;;30.70;44.40;;;;;;5078078;28;20374;-78
2022/06/23 13:58:31;;;;;;;0.00;0.00;;;30.70;45.90;;;;;;5078989;28;20102;-73
2022/06/23 14:01:20;;;;;;;0.00;0.00;;;30.70;45.30;;;;;;5073190;28;20048;-75